sensor_id;sensor_type;location;lat;lon;timestamp;P1;durP1;ratioP1;P2;durP2;ratioP2
64871;SDS011;51351;51.450;6.614;2023-07-29T00:00:57;2.78;;;2.15;;
64871;SDS011;51351;51.450;6.614;2023-07-29T00:03:23;2.08;;;1.83;;
64871;SDS011;51351;51.450;6.614;2023-07-29T00:05:49;3.47;;;1.65;;
64871;SDS011;51351;51.450;6.614;2023-07-29T00:08:15;3.75;;;2.35;;
64871;SDS011;51351;51.450;6.614;2023-07-29T00:10:41;1.90;;;1.70;;
64871;SDS011;51351;51.450;6.614;2023-07-29T00:13:07;2.28;;;1.80;;
64871;SDS011;51351;51.450;6.614;2023-07-29T00:15:33;3.95;;;1.83;;
64871;SDS011;51351;51.450;6.614;2023-07-29T00:17:59;3.45;;;1.95;;
64871;SDS011;51351;51.450;6.614;2023-07-29T00:20:26;4.20;;;1.85;;
64871;SDS011;51351;51.450;6.614;2023-07-29T00:22:52;2.38;;;1.83;;
64871;SDS011;51351;51.450;6.614;2023-07-29T00:25:21;1.88;;;1.52;;
64871;SDS011;51351;51.450;6.614;2023-07-29T00:27:47;3.42;;;1.42;;
64871;SDS011;51351;51.450;6.614;2023-07-29T00:30:13;3.92;;;1.75;;
64871;SDS011;51351;51.450;6.614;2023-07-29T00:32:39;4.28;;;2.45;;
64871;SDS011;51351;51.450;6.614;2023-07-29T00:35:05;2.92;;;1.65;;
64871;SDS011;51351;51.450;6.614;2023-07-29T00:37:32;6.75;;;1.90;;
64871;SDS011;51351;51.450;6.614;2023-07-29T00:39:58;3.63;;;2.00;;
64871;SDS011;51351;51.450;6.614;2023-07-29T00:42:24;2.80;;;1.85;;
64871;SDS011;51351;51.450;6.614;2023-07-29T00:47:16;3.15;;;1.73;;
64871;SDS011;51351;51.450;6.614;2023-07-29T00:49:43;5.53;;;1.83;;
64871;SDS011;51351;51.450;6.614;2023-07-29T00:52:10;3.80;;;2.80;;
64871;SDS011;51351;51.450;6.614;2023-07-29T00:54:40;2.55;;;1.90;;
64871;SDS011;51351;51.450;6.614;2023-07-29T00:57:08;2.13;;;1.90;;
64871;SDS011;51351;51.450;6.614;2023-07-29T00:59:35;4.55;;;2.03;;
64871;SDS011;51351;51.450;6.614;2023-07-29T01:02:02;2.53;;;2.17;;
64871;SDS011;51351;51.450;6.614;2023-07-29T01:04:31;2.42;;;2.00;;
64871;SDS011;51351;51.450;6.614;2023-07-29T01:12:27;3.13;;;1.63;;
64871;SDS011;51351;51.450;6.614;2023-07-29T01:15:14;3.63;;;1.98;;
64871;SDS011;51351;51.450;6.614;2023-07-29T01:17:46;4.03;;;2.08;;
64871;SDS011;51351;51.450;6.614;2023-07-29T01:20:16;2.45;;;1.95;;
64871;SDS011;51351;51.450;6.614;2023-07-29T01:22:43;3.08;;;1.83;;
64871;SDS011;51351;51.450;6.614;2023-07-29T01:25:10;2.75;;;1.73;;
64871;SDS011;51351;51.450;6.614;2023-07-29T01:27:36;1.90;;;1.67;;
64871;SDS011;51351;51.450;6.614;2023-07-29T01:30:02;4.75;;;1.90;;
64871;SDS011;51351;51.450;6.614;2023-07-29T01:32:32;1.98;;;1.75;;
64871;SDS011;51351;51.450;6.614;2023-07-29T01:38:07;3.55;;;1.85;;
64871;SDS011;51351;51.450;6.614;2023-07-29T01:40:40;2.83;;;1.95;;
64871;SDS011;51351;51.450;6.614;2023-07-29T01:43:07;2.20;;;1.92;;
64871;SDS011;51351;51.450;6.614;2023-07-29T01:48:07;2.78;;;1.98;;
64871;SDS011;51351;51.450;6.614;2023-07-29T01:50:33;2.88;;;2.40;;
64871;SDS011;51351;51.450;6.614;2023-07-29T01:53:00;4.18;;;2.30;;
64871;SDS011;51351;51.450;6.614;2023-07-29T01:55:26;2.72;;;1.42;;
64871;SDS011;51351;51.450;6.614;2023-07-29T01:57:53;2.30;;;1.85;;
64871;SDS011;51351;51.450;6.614;2023-07-29T02:00:20;2.92;;;1.77;;
64871;SDS011;51351;51.450;6.614;2023-07-29T02:02:46;5.30;;;2.03;;
64871;SDS011;51351;51.450;6.614;2023-07-29T02:05:12;3.58;;;1.85;;
64871;SDS011;51351;51.450;6.614;2023-07-29T02:07:38;2.72;;;1.85;;
64871;SDS011;51351;51.450;6.614;2023-07-29T02:10:04;5.35;;;2.08;;
64871;SDS011;51351;51.450;6.614;2023-07-29T02:12:31;4.75;;;2.03;;
64871;SDS011;51351;51.450;6.614;2023-07-29T02:14:57;2.38;;;2.05;;
64871;SDS011;51351;51.450;6.614;2023-07-29T02:17:23;2.53;;;1.60;;
64871;SDS011;51351;51.450;6.614;2023-07-29T02:19:49;4.07;;;2.17;;
64871;SDS011;51351;51.450;6.614;2023-07-29T02:22:16;2.92;;;2.10;;
64871;SDS011;51351;51.450;6.614;2023-07-29T02:24:43;3.28;;;1.85;;
64871;SDS011;51351;51.450;6.614;2023-07-29T02:27:10;2.67;;;1.80;;
64871;SDS011;51351;51.450;6.614;2023-07-29T02:29:37;3.95;;;1.95;;
64871;SDS011;51351;51.450;6.614;2023-07-29T02:32:03;3.50;;;2.42;;
64871;SDS011;51351;51.450;6.614;2023-07-29T02:36:56;2.63;;;1.80;;
64871;SDS011;51351;51.450;6.614;2023-07-29T02:39:22;3.90;;;2.03;;
64871;SDS011;51351;51.450;6.614;2023-07-29T02:41:49;3.38;;;2.00;;
64871;SDS011;51351;51.450;6.614;2023-07-29T02:44:15;2.80;;;2.50;;
64871;SDS011;51351;51.450;6.614;2023-07-29T02:46:41;3.08;;;1.83;;
64871;SDS011;51351;51.450;6.614;2023-07-29T02:49:07;2.13;;;1.92;;
64871;SDS011;51351;51.450;6.614;2023-07-29T02:51:33;3.28;;;2.45;;
64871;SDS011;51351;51.450;6.614;2023-07-29T02:53:59;6.07;;;2.50;;
64871;SDS011;51351;51.450;6.614;2023-07-29T02:56:26;3.95;;;2.03;;
64871;SDS011;51351;51.450;6.614;2023-07-29T02:58:52;3.75;;;2.67;;
64871;SDS011;51351;51.450;6.614;2023-07-29T03:01:18;3.40;;;2.53;;
64871;SDS011;51351;51.450;6.614;2023-07-29T03:06:11;3.45;;;2.65;;
64871;SDS011;51351;51.450;6.614;2023-07-29T03:08:39;2.85;;;2.53;;
64871;SDS011;51351;51.450;6.614;2023-07-29T03:11:06;3.72;;;2.75;;
64871;SDS011;51351;51.450;6.614;2023-07-29T03:13:33;4.28;;;3.03;;
64871;SDS011;51351;51.450;6.614;2023-07-29T03:16:09;3.38;;;2.67;;
64871;SDS011;51351;51.450;6.614;2023-07-29T03:18:48;7.35;;;3.40;;
64871;SDS011;51351;51.450;6.614;2023-07-29T03:21:14;7.18;;;3.30;;
64871;SDS011;51351;51.450;6.614;2023-07-29T03:23:40;3.42;;;2.92;;
64871;SDS011;51351;51.450;6.614;2023-07-29T03:26:07;3.78;;;2.80;;
64871;SDS011;51351;51.450;6.614;2023-07-29T03:28:40;3.22;;;2.92;;
64871;SDS011;51351;51.450;6.614;2023-07-29T03:31:08;3.53;;;3.20;;
64871;SDS011;51351;51.450;6.614;2023-07-29T03:33:34;3.53;;;2.88;;
64871;SDS011;51351;51.450;6.614;2023-07-29T03:36:00;3.75;;;2.50;;
64871;SDS011;51351;51.450;6.614;2023-07-29T03:38:26;5.57;;;3.15;;
64871;SDS011;51351;51.450;6.614;2023-07-29T03:40:53;3.95;;;3.28;;
64871;SDS011;51351;51.450;6.614;2023-07-29T03:45:45;4.15;;;2.78;;
64871;SDS011;51351;51.450;6.614;2023-07-29T03:50:38;5.13;;;2.50;;
64871;SDS011;51351;51.450;6.614;2023-07-29T03:53:05;3.75;;;3.00;;
64871;SDS011;51351;51.450;6.614;2023-07-29T03:55:31;3.28;;;2.50;;
64871;SDS011;51351;51.450;6.614;2023-07-29T03:57:58;4.45;;;2.95;;
64871;SDS011;51351;51.450;6.614;2023-07-29T04:00:25;3.47;;;2.53;;
64871;SDS011;51351;51.450;6.614;2023-07-29T04:02:51;2.58;;;2.38;;
64871;SDS011;51351;51.450;6.614;2023-07-29T04:05:18;5.18;;;4.15;;
64871;SDS011;51351;51.450;6.614;2023-07-29T04:07:44;4.75;;;3.05;;
64871;SDS011;51351;51.450;6.614;2023-07-29T04:10:10;4.10;;;3.22;;
64871;SDS011;51351;51.450;6.614;2023-07-29T04:12:37;3.47;;;2.88;;
64871;SDS011;51351;51.450;6.614;2023-07-29T04:15:04;5.85;;;3.45;;
64871;SDS011;51351;51.450;6.614;2023-07-29T04:17:30;6.68;;;3.35;;
64871;SDS011;51351;51.450;6.614;2023-07-29T04:19:56;5.22;;;3.22;;
64871;SDS011;51351;51.450;6.614;2023-07-29T04:22:28;5.63;;;3.22;;
64871;SDS011;51351;51.450;6.614;2023-07-29T04:24:54;8.77;;;4.15;;
64871;SDS011;51351;51.450;6.614;2023-07-29T04:27:20;7.70;;;4.38;;
64871;SDS011;51351;51.450;6.614;2023-07-29T04:29:46;9.70;;;4.22;;
64871;SDS011;51351;51.450;6.614;2023-07-29T04:32:12;6.00;;;4.35;;
64871;SDS011;51351;51.450;6.614;2023-07-29T04:34:38;6.55;;;4.68;;
64871;SDS011;51351;51.450;6.614;2023-07-29T04:37:06;7.53;;;5.00;;
64871;SDS011;51351;51.450;6.614;2023-07-29T04:39:32;8.18;;;4.40;;
64871;SDS011;51351;51.450;6.614;2023-07-29T04:41:58;6.38;;;4.25;;
64871;SDS011;51351;51.450;6.614;2023-07-29T04:44:26;7.25;;;5.50;;
64871;SDS011;51351;51.450;6.614;2023-07-29T04:46:52;8.05;;;6.00;;
64871;SDS011;51351;51.450;6.614;2023-07-29T04:49:18;8.27;;;5.65;;
64871;SDS011;51351;51.450;6.614;2023-07-29T04:51:44;8.02;;;5.13;;
64871;SDS011;51351;51.450;6.614;2023-07-29T04:54:10;7.97;;;5.80;;
64871;SDS011;51351;51.450;6.614;2023-07-29T04:56:36;7.05;;;4.78;;
64871;SDS011;51351;51.450;6.614;2023-07-29T04:59:02;12.73;;;6.30;;
64871;SDS011;51351;51.450;6.614;2023-07-29T05:01:28;10.05;;;4.93;;
64871;SDS011;51351;51.450;6.614;2023-07-29T05:03:54;8.52;;;5.38;;
64871;SDS011;51351;51.450;6.614;2023-07-29T05:06:20;7.22;;;5.53;;
64871;SDS011;51351;51.450;6.614;2023-07-29T05:08:47;7.38;;;4.95;;
64871;SDS011;51351;51.450;6.614;2023-07-29T05:11:13;6.30;;;4.30;;
64871;SDS011;51351;51.450;6.614;2023-07-29T05:13:39;8.85;;;4.22;;
64871;SDS011;51351;51.450;6.614;2023-07-29T05:16:06;5.95;;;4.38;;
64871;SDS011;51351;51.450;6.614;2023-07-29T05:18:32;5.07;;;3.67;;
64871;SDS011;51351;51.450;6.614;2023-07-29T05:20:58;6.28;;;4.65;;
64871;SDS011;51351;51.450;6.614;2023-07-29T05:23:25;6.43;;;3.85;;
64871;SDS011;51351;51.450;6.614;2023-07-29T05:25:51;4.35;;;3.92;;
64871;SDS011;51351;51.450;6.614;2023-07-29T05:28:17;6.72;;;3.63;;
64871;SDS011;51351;51.450;6.614;2023-07-29T05:30:43;6.75;;;3.67;;
64871;SDS011;51351;51.450;6.614;2023-07-29T05:33:09;5.00;;;3.65;;
64871;SDS011;51351;51.450;6.614;2023-07-29T05:35:35;4.97;;;3.53;;
64871;SDS011;51351;51.450;6.614;2023-07-29T05:38:01;5.53;;;3.65;;
64871;SDS011;51351;51.450;6.614;2023-07-29T05:40:29;4.72;;;3.17;;
64871;SDS011;51351;51.450;6.614;2023-07-29T05:42:55;5.15;;;3.17;;
64871;SDS011;51351;51.450;6.614;2023-07-29T05:45:22;5.38;;;3.53;;
64871;SDS011;51351;51.450;6.614;2023-07-29T05:47:48;3.88;;;3.47;;
64871;SDS011;51351;51.450;6.614;2023-07-29T05:50:14;4.38;;;2.95;;
64871;SDS011;51351;51.450;6.614;2023-07-29T05:52:41;5.07;;;3.17;;
64871;SDS011;51351;51.450;6.614;2023-07-29T05:57:33;3.22;;;2.80;;
64871;SDS011;51351;51.450;6.614;2023-07-29T05:59:59;4.95;;;2.50;;
64871;SDS011;51351;51.450;6.614;2023-07-29T06:02:26;9.10;;;4.97;;
64871;SDS011;51351;51.450;6.614;2023-07-29T06:04:52;4.55;;;2.90;;
64871;SDS011;51351;51.450;6.614;2023-07-29T06:07:18;3.58;;;2.40;;
64871;SDS011;51351;51.450;6.614;2023-07-29T06:09:44;4.15;;;3.15;;
64871;SDS011;51351;51.450;6.614;2023-07-29T06:12:10;4.82;;;3.08;;
64871;SDS011;51351;51.450;6.614;2023-07-29T06:14:36;4.78;;;2.88;;
64871;SDS011;51351;51.450;6.614;2023-07-29T06:17:02;4.55;;;2.72;;
64871;SDS011;51351;51.450;6.614;2023-07-29T06:19:28;3.17;;;2.38;;
64871;SDS011;51351;51.450;6.614;2023-07-29T06:21:55;4.07;;;2.90;;
64871;SDS011;51351;51.450;6.614;2023-07-29T06:24:21;4.40;;;2.40;;
64871;SDS011;51351;51.450;6.614;2023-07-29T06:26:47;3.20;;;2.08;;
64871;SDS011;51351;51.450;6.614;2023-07-29T06:29:13;3.38;;;2.00;;
64871;SDS011;51351;51.450;6.614;2023-07-29T06:31:39;3.70;;;2.08;;
64871;SDS011;51351;51.450;6.614;2023-07-29T06:34:05;3.30;;;1.92;;
64871;SDS011;51351;51.450;6.614;2023-07-29T06:36:31;3.10;;;1.80;;
64871;SDS011;51351;51.450;6.614;2023-07-29T06:38:57;6.47;;;2.30;;
64871;SDS011;51351;51.450;6.614;2023-07-29T06:41:23;4.05;;;2.08;;
64871;SDS011;51351;51.450;6.614;2023-07-29T06:43:49;3.58;;;1.85;;
64871;SDS011;51351;51.450;6.614;2023-07-29T06:46:15;3.38;;;2.33;;
64871;SDS011;51351;51.450;6.614;2023-07-29T06:48:41;1.98;;;1.77;;
64871;SDS011;51351;51.450;6.614;2023-07-29T06:51:07;2.42;;;1.83;;
64871;SDS011;51351;51.450;6.614;2023-07-29T06:53:34;4.43;;;2.20;;
64871;SDS011;51351;51.450;6.614;2023-07-29T06:56:00;2.55;;;1.90;;
64871;SDS011;51351;51.450;6.614;2023-07-29T06:58:26;5.65;;;2.03;;
64871;SDS011;51351;51.450;6.614;2023-07-29T07:00:52;3.75;;;1.58;;
64871;SDS011;51351;51.450;6.614;2023-07-29T07:03:18;2.08;;;1.70;;
64871;SDS011;51351;51.450;6.614;2023-07-29T07:05:44;3.17;;;1.50;;
64871;SDS011;51351;51.450;6.614;2023-07-29T07:08:11;2.40;;;1.35;;
64871;SDS011;51351;51.450;6.614;2023-07-29T07:10:37;2.35;;;1.60;;
64871;SDS011;51351;51.450;6.614;2023-07-29T07:13:03;2.90;;;1.55;;
64871;SDS011;51351;51.450;6.614;2023-07-29T07:15:29;2.80;;;1.42;;
64871;SDS011;51351;51.450;6.614;2023-07-29T07:17:55;2.88;;;1.33;;
64871;SDS011;51351;51.450;6.614;2023-07-29T07:20:21;3.65;;;1.77;;
64871;SDS011;51351;51.450;6.614;2023-07-29T07:22:47;1.65;;;1.05;;
64871;SDS011;51351;51.450;6.614;2023-07-29T07:25:13;2.00;;;1.10;;
64871;SDS011;51351;51.450;6.614;2023-07-29T07:27:39;2.70;;;1.45;;
64871;SDS011;51351;51.450;6.614;2023-07-29T07:30:05;3.25;;;1.25;;
64871;SDS011;51351;51.450;6.614;2023-07-29T07:32:33;4.70;;;1.33;;
64871;SDS011;51351;51.450;6.614;2023-07-29T07:34:59;1.65;;;1.25;;
64871;SDS011;51351;51.450;6.614;2023-07-29T07:37:25;2.42;;;1.10;;
64871;SDS011;51351;51.450;6.614;2023-07-29T07:39:51;2.22;;;1.10;;
64871;SDS011;51351;51.450;6.614;2023-07-29T07:42:17;2.70;;;1.23;;
64871;SDS011;51351;51.450;6.614;2023-07-29T07:44:43;1.85;;;1.10;;
64871;SDS011;51351;51.450;6.614;2023-07-29T07:47:09;2.03;;;1.10;;
64871;SDS011;51351;51.450;6.614;2023-07-29T07:49:35;1.40;;;0.82;;
64871;SDS011;51351;51.450;6.614;2023-07-29T07:52:01;1.15;;;0.90;;
64871;SDS011;51351;51.450;6.614;2023-07-29T07:54:27;1.42;;;1.00;;
64871;SDS011;51351;51.450;6.614;2023-07-29T07:56:53;2.05;;;1.10;;
64871;SDS011;51351;51.450;6.614;2023-07-29T07:59:19;3.42;;;1.20;;
64871;SDS011;51351;51.450;6.614;2023-07-29T08:01:45;1.85;;;0.88;;
64871;SDS011;51351;51.450;6.614;2023-07-29T08:04:12;2.45;;;0.93;;
64871;SDS011;51351;51.450;6.614;2023-07-29T08:06:38;1.13;;;0.80;;
64871;SDS011;51351;51.450;6.614;2023-07-29T08:09:04;3.05;;;0.90;;
64871;SDS011;51351;51.450;6.614;2023-07-29T08:13:56;1.80;;;0.82;;
64871;SDS011;51351;51.450;6.614;2023-07-29T08:16:23;1.20;;;0.90;;
64871;SDS011;51351;51.450;6.614;2023-07-29T08:21:15;2.60;;;1.00;;
64871;SDS011;51351;51.450;6.614;2023-07-29T08:23:41;1.20;;;0.80;;
64871;SDS011;51351;51.450;6.614;2023-07-29T08:26:07;1.40;;;0.73;;
64871;SDS011;51351;51.450;6.614;2023-07-29T08:31:01;1.23;;;0.70;;
64871;SDS011;51351;51.450;6.614;2023-07-29T08:33:27;1.08;;;0.70;;
64871;SDS011;51351;51.450;6.614;2023-07-29T08:35:53;1.30;;;0.80;;
64871;SDS011;51351;51.450;6.614;2023-07-29T08:38:20;1.40;;;0.85;;
64871;SDS011;51351;51.450;6.614;2023-07-29T08:43:36;1.40;;;0.60;;
64871;SDS011;51351;51.450;6.614;2023-07-29T08:46:07;0.90;;;0.60;;
64871;SDS011;51351;51.450;6.614;2023-07-29T08:48:40;0.82;;;0.63;;
64871;SDS011;51351;51.450;6.614;2023-07-29T08:51:08;1.70;;;0.80;;
64871;SDS011;51351;51.450;6.614;2023-07-29T08:53:35;0.98;;;0.57;;
64871;SDS011;51351;51.450;6.614;2023-07-29T08:56:02;2.80;;;0.90;;
64871;SDS011;51351;51.450;6.614;2023-07-29T08:58:28;5.32;;;1.05;;
64871;SDS011;51351;51.450;6.614;2023-07-29T09:00:55;1.65;;;0.90;;
64871;SDS011;51351;51.450;6.614;2023-07-29T09:05:47;1.30;;;0.80;;
64871;SDS011;51351;51.450;6.614;2023-07-29T09:08:14;1.80;;;0.90;;
64871;SDS011;51351;51.450;6.614;2023-07-29T09:10:40;1.33;;;0.90;;
64871;SDS011;51351;51.450;6.614;2023-07-29T09:13:06;1.85;;;0.82;;
64871;SDS011;51351;51.450;6.614;2023-07-29T09:15:33;2.10;;;0.98;;
64871;SDS011;51351;51.450;6.614;2023-07-29T09:18:11;1.63;;;1.20;;
64871;SDS011;51351;51.450;6.614;2023-07-29T09:20:41;1.42;;;1.20;;
64871;SDS011;51351;51.450;6.614;2023-07-29T09:23:08;1.52;;;1.10;;
64871;SDS011;51351;51.450;6.614;2023-07-29T09:25:36;1.83;;;0.93;;
64871;SDS011;51351;51.450;6.614;2023-07-29T09:28:13;1.30;;;1.10;;
64871;SDS011;51351;51.450;6.614;2023-07-29T09:30:42;1.95;;;0.90;;
64871;SDS011;51351;51.450;6.614;2023-07-29T09:33:10;1.30;;;0.95;;
64871;SDS011;51351;51.450;6.614;2023-07-29T09:38:03;2.88;;;1.55;;
64871;SDS011;51351;51.450;6.614;2023-07-29T09:40:36;3.47;;;1.30;;
64871;SDS011;51351;51.450;6.614;2023-07-29T09:43:03;1.95;;;1.35;;
64871;SDS011;51351;51.450;6.614;2023-07-29T09:45:32;2.85;;;1.20;;
64871;SDS011;51351;51.450;6.614;2023-07-29T09:47:59;2.25;;;1.00;;
64871;SDS011;51351;51.450;6.614;2023-07-29T09:50:26;2.45;;;1.02;;
64871;SDS011;51351;51.450;6.614;2023-07-29T09:52:53;2.05;;;0.82;;
64871;SDS011;51351;51.450;6.614;2023-07-29T09:55:23;1.75;;;1.17;;
64871;SDS011;51351;51.450;6.614;2023-07-29T09:57:56;1.45;;;1.08;;
64871;SDS011;51351;51.450;6.614;2023-07-29T10:00:25;1.42;;;1.05;;
64871;SDS011;51351;51.450;6.614;2023-07-29T10:02:51;4.30;;;1.05;;
64871;SDS011;51351;51.450;6.614;2023-07-29T10:05:19;1.88;;;1.02;;
64871;SDS011;51351;51.450;6.614;2023-07-29T10:07:47;1.40;;;0.95;;
64871;SDS011;51351;51.450;6.614;2023-07-29T10:10:14;1.58;;;0.95;;
64871;SDS011;51351;51.450;6.614;2023-07-29T10:12:41;3.50;;;1.20;;
64871;SDS011;51351;51.450;6.614;2023-07-29T10:15:08;1.50;;;1.08;;
64871;SDS011;51351;51.450;6.614;2023-07-29T10:17:35;1.27;;;1.10;;
64871;SDS011;51351;51.450;6.614;2023-07-29T10:20:06;3.05;;;0.90;;
64871;SDS011;51351;51.450;6.614;2023-07-29T10:22:40;2.20;;;1.00;;
64871;SDS011;51351;51.450;6.614;2023-07-29T10:25:08;1.15;;;0.90;;
64871;SDS011;51351;51.450;6.614;2023-07-29T10:27:47;2.10;;;1.20;;
64871;SDS011;51351;51.450;6.614;2023-07-29T10:30:13;1.25;;;0.82;;
64871;SDS011;51351;51.450;6.614;2023-07-29T10:32:42;1.23;;;0.60;;
64871;SDS011;51351;51.450;6.614;2023-07-29T10:35:11;1.08;;;0.70;;
64871;SDS011;51351;51.450;6.614;2023-07-29T10:37:46;1.20;;;0.90;;
64871;SDS011;51351;51.450;6.614;2023-07-29T10:40:16;1.65;;;0.80;;
64871;SDS011;51351;51.450;6.614;2023-07-29T10:42:59;2.45;;;0.88;;
64871;SDS011;51351;51.450;6.614;2023-07-29T10:45:40;2.85;;;0.95;;
64871;SDS011;51351;51.450;6.614;2023-07-29T10:48:11;2.13;;;1.10;;
64871;SDS011;51351;51.450;6.614;2023-07-29T10:50:37;1.88;;;0.98;;
64871;SDS011;51351;51.450;6.614;2023-07-29T10:53:04;0.90;;;0.68;;
64871;SDS011;51351;51.450;6.614;2023-07-29T10:55:34;1.52;;;0.98;;
64871;SDS011;51351;51.450;6.614;2023-07-29T10:58:22;1.30;;;0.77;;
64871;SDS011;51351;51.450;6.614;2023-07-29T11:00:48;2.90;;;1.02;;
64871;SDS011;51351;51.450;6.614;2023-07-29T11:03:14;1.30;;;1.02;;
64871;SDS011;51351;51.450;6.614;2023-07-29T11:05:41;4.28;;;2.50;;
64871;SDS011;51351;51.450;6.614;2023-07-29T11:08:27;1.73;;;0.85;;
64871;SDS011;51351;51.450;6.614;2023-07-29T11:13:26;1.38;;;0.90;;
64871;SDS011;51351;51.450;6.614;2023-07-29T11:15:54;2.10;;;1.10;;
64871;SDS011;51351;51.450;6.614;2023-07-29T11:18:20;1.65;;;0.90;;
64871;SDS011;51351;51.450;6.614;2023-07-29T11:23:13;2.75;;;1.10;;
64871;SDS011;51351;51.450;6.614;2023-07-29T11:28:05;2.65;;;1.17;;
64871;SDS011;51351;51.450;6.614;2023-07-29T11:30:31;1.77;;;1.05;;
64871;SDS011;51351;51.450;6.614;2023-07-29T11:32:59;3.28;;;0.95;;
64871;SDS011;51351;51.450;6.614;2023-07-29T11:37:51;1.48;;;1.10;;
64871;SDS011;51351;51.450;6.614;2023-07-29T11:40:20;3.95;;;1.52;;
64871;SDS011;51351;51.450;6.614;2023-07-29T11:42:48;2.53;;;1.10;;
64871;SDS011;51351;51.450;6.614;2023-07-29T11:45:18;1.48;;;1.17;;
64871;SDS011;51351;51.450;6.614;2023-07-29T11:47:45;1.63;;;0.98;;
64871;SDS011;51351;51.450;6.614;2023-07-29T11:50:12;2.13;;;1.00;;
64871;SDS011;51351;51.450;6.614;2023-07-29T11:52:40;1.52;;;1.10;;
64871;SDS011;51351;51.450;6.614;2023-07-29T11:55:07;2.20;;;0.90;;
64871;SDS011;51351;51.450;6.614;2023-07-29T11:57:34;2.60;;;1.15;;
64871;SDS011;51351;51.450;6.614;2023-07-29T12:00:05;1.73;;;1.02;;
64871;SDS011;51351;51.450;6.614;2023-07-29T12:02:37;1.52;;;1.08;;
64871;SDS011;51351;51.450;6.614;2023-07-29T12:05:04;1.60;;;0.88;;
64871;SDS011;51351;51.450;6.614;2023-07-29T12:07:31;2.40;;;1.00;;
64871;SDS011;51351;51.450;6.614;2023-07-29T12:09:59;2.40;;;1.30;;
64871;SDS011;51351;51.450;6.614;2023-07-29T12:12:25;1.70;;;1.00;;
64871;SDS011;51351;51.450;6.614;2023-07-29T12:14:53;4.55;;;1.30;;
64871;SDS011;51351;51.450;6.614;2023-07-29T12:17:20;1.60;;;1.10;;
64871;SDS011;51351;51.450;6.614;2023-07-29T12:22:11;2.50;;;1.25;;
64871;SDS011;51351;51.450;6.614;2023-07-29T12:24:42;2.13;;;1.25;;
64871;SDS011;51351;51.450;6.614;2023-07-29T12:29:42;1.50;;;0.95;;
64871;SDS011;51351;51.450;6.614;2023-07-29T12:32:09;1.27;;;1.02;;
64871;SDS011;51351;51.450;6.614;2023-07-29T12:34:36;1.77;;;1.20;;
64871;SDS011;51351;51.450;6.614;2023-07-29T12:37:04;2.97;;;1.60;;
64871;SDS011;51351;51.450;6.614;2023-07-29T12:39:33;1.88;;;1.23;;
64871;SDS011;51351;51.450;6.614;2023-07-29T12:42:00;2.42;;;1.08;;
64871;SDS011;51351;51.450;6.614;2023-07-29T12:44:29;2.08;;;1.27;;
64871;SDS011;51351;51.450;6.614;2023-07-29T12:46:59;1.65;;;1.05;;
64871;SDS011;51351;51.450;6.614;2023-07-29T12:49:26;1.38;;;1.02;;
64871;SDS011;51351;51.450;6.614;2023-07-29T12:51:54;3.45;;;1.15;;
64871;SDS011;51351;51.450;6.614;2023-07-29T12:54:20;1.85;;;1.10;;
64871;SDS011;51351;51.450;6.614;2023-07-29T12:56:46;1.60;;;1.10;;
64871;SDS011;51351;51.450;6.614;2023-07-29T12:59:12;2.42;;;1.42;;
64871;SDS011;51351;51.450;6.614;2023-07-29T13:01:38;3.45;;;1.25;;
64871;SDS011;51351;51.450;6.614;2023-07-29T13:06:29;1.55;;;1.15;;
64871;SDS011;51351;51.450;6.614;2023-07-29T13:08:56;2.90;;;1.35;;
64871;SDS011;51351;51.450;6.614;2023-07-29T13:13:49;3.25;;;2.95;;
64871;SDS011;51351;51.450;6.614;2023-07-29T13:16:15;1.85;;;1.13;;
64871;SDS011;51351;51.450;6.614;2023-07-29T13:18:42;1.70;;;1.27;;
64871;SDS011;51351;51.450;6.614;2023-07-29T13:21:09;2.55;;;1.23;;
64871;SDS011;51351;51.450;6.614;2023-07-29T13:23:35;1.60;;;1.13;;
64871;SDS011;51351;51.450;6.614;2023-07-29T13:26:01;3.35;;;1.52;;
64871;SDS011;51351;51.450;6.614;2023-07-29T13:30:53;2.92;;;1.65;;
64871;SDS011;51351;51.450;6.614;2023-07-29T13:35:45;1.83;;;1.70;;
64871;SDS011;51351;51.450;6.614;2023-07-29T13:38:11;2.50;;;1.15;;
64871;SDS011;51351;51.450;6.614;2023-07-29T13:40:37;2.33;;;1.63;;
64871;SDS011;51351;51.450;6.614;2023-07-29T13:45:29;3.83;;;1.77;;
64871;SDS011;51351;51.450;6.614;2023-07-29T13:47:55;3.00;;;1.80;;
64871;SDS011;51351;51.450;6.614;2023-07-29T13:50:21;2.75;;;1.65;;
64871;SDS011;51351;51.450;6.614;2023-07-29T13:52:47;4.00;;;2.10;;
64871;SDS011;51351;51.450;6.614;2023-07-29T13:55:13;3.50;;;1.75;;
64871;SDS011;51351;51.450;6.614;2023-07-29T13:57:39;2.72;;;1.77;;
64871;SDS011;51351;51.450;6.614;2023-07-29T14:00:06;2.83;;;1.60;;
64871;SDS011;51351;51.450;6.614;2023-07-29T14:02:39;5.15;;;1.77;;
64871;SDS011;51351;51.450;6.614;2023-07-29T14:05:07;4.88;;;1.98;;
64871;SDS011;51351;51.450;6.614;2023-07-29T14:07:33;2.20;;;1.65;;
64871;SDS011;51351;51.450;6.614;2023-07-29T14:09:59;2.60;;;2.30;;
64871;SDS011;51351;51.450;6.614;2023-07-29T14:12:25;3.17;;;2.05;;
64871;SDS011;51351;51.450;6.614;2023-07-29T14:14:51;3.60;;;2.67;;
64871;SDS011;51351;51.450;6.614;2023-07-29T14:17:17;3.60;;;2.42;;
64871;SDS011;51351;51.450;6.614;2023-07-29T14:19:43;4.07;;;2.72;;
64871;SDS011;51351;51.450;6.614;2023-07-29T14:22:09;3.63;;;2.85;;
64871;SDS011;51351;51.450;6.614;2023-07-29T14:24:35;4.88;;;2.78;;
64871;SDS011;51351;51.450;6.614;2023-07-29T14:27:01;4.57;;;3.42;;
64871;SDS011;51351;51.450;6.614;2023-07-29T14:29:28;3.03;;;2.40;;
64871;SDS011;51351;51.450;6.614;2023-07-29T14:31:54;3.47;;;1.98;;
64871;SDS011;51351;51.450;6.614;2023-07-29T14:34:20;4.28;;;2.40;;
64871;SDS011;51351;51.450;6.614;2023-07-29T14:36:46;3.75;;;2.47;;
64871;SDS011;51351;51.450;6.614;2023-07-29T14:39:12;2.65;;;2.03;;
64871;SDS011;51351;51.450;6.614;2023-07-29T14:41:38;2.58;;;1.83;;
64871;SDS011;51351;51.450;6.614;2023-07-29T14:44:04;3.42;;;2.25;;
64871;SDS011;51351;51.450;6.614;2023-07-29T14:46:30;4.35;;;2.03;;
64871;SDS011;51351;51.450;6.614;2023-07-29T14:48:56;4.85;;;2.67;;
64871;SDS011;51351;51.450;6.614;2023-07-29T14:51:22;4.20;;;2.70;;
64871;SDS011;51351;51.450;6.614;2023-07-29T14:53:48;3.95;;;2.60;;
64871;SDS011;51351;51.450;6.614;2023-07-29T14:56:15;5.18;;;2.40;;
64871;SDS011;51351;51.450;6.614;2023-07-29T14:58:43;6.53;;;2.22;;
64871;SDS011;51351;51.450;6.614;2023-07-29T15:01:10;3.15;;;2.35;;
64871;SDS011;51351;51.450;6.614;2023-07-29T15:03:36;3.08;;;2.25;;
64871;SDS011;51351;51.450;6.614;2023-07-29T15:06:02;4.18;;;2.08;;
64871;SDS011;51351;51.450;6.614;2023-07-29T15:10:54;4.55;;;2.63;;
64871;SDS011;51351;51.450;6.614;2023-07-29T15:13:20;3.13;;;2.00;;
64871;SDS011;51351;51.450;6.614;2023-07-29T15:15:46;8.45;;;3.22;;
64871;SDS011;51351;51.450;6.614;2023-07-29T15:18:15;2.90;;;2.00;;
64871;SDS011;51351;51.450;6.614;2023-07-29T15:20:41;3.63;;;2.47;;
64871;SDS011;51351;51.450;6.614;2023-07-29T15:23:07;3.42;;;2.00;;
64871;SDS011;51351;51.450;6.614;2023-07-29T15:25:33;3.83;;;2.10;;
64871;SDS011;51351;51.450;6.614;2023-07-29T15:27:59;1.90;;;1.02;;
64871;SDS011;51351;51.450;6.614;2023-07-29T15:32:51;1.70;;;1.23;;
64871;SDS011;51351;51.450;6.614;2023-07-29T15:35:17;1.80;;;1.15;;
64871;SDS011;51351;51.450;6.614;2023-07-29T15:40:11;1.98;;;1.10;;
64871;SDS011;51351;51.450;6.614;2023-07-29T15:42:49;1.48;;;0.90;;
64871;SDS011;51351;51.450;6.614;2023-07-29T15:45:15;1.63;;;0.95;;
64871;SDS011;51351;51.450;6.614;2023-07-29T15:47:42;1.10;;;0.75;;
64871;SDS011;51351;51.450;6.614;2023-07-29T15:50:08;1.20;;;0.70;;
64871;SDS011;51351;51.450;6.614;2023-07-29T15:52:34;1.08;;;0.88;;
64871;SDS011;51351;51.450;6.614;2023-07-29T15:55:01;1.90;;;1.10;;
64871;SDS011;51351;51.450;6.614;2023-07-29T15:57:27;1.33;;;1.23;;
64871;SDS011;51351;51.450;6.614;2023-07-29T15:59:55;2.22;;;0.98;;
64871;SDS011;51351;51.450;6.614;2023-07-29T16:02:22;1.25;;;0.90;;